Time;durP1;ratioP1;P1;durP2;ratioP2;P2;SDS_P1;SDS_P2;PMS_P1;PMS_P2;Temp;Humidity;BMP_temperature;BMP_pressure;BME280_temperature;BME280_humidity;BME280_pressure;Samples;Min_cycle;Max_cycle;Signal;HPM_P1;HPM_P2
2022/07/21 00:00:26;;;;;;;13.48;5.82;;;;;;;29.87;38.71;96931.91;4947451;28;20046;-26
2022/07/21 00:02:52;;;;;;;10.07;5.80;;;;;;;29.88;38.43;96936.22;4952848;28;20049;-27
2022/07/21 00:05:17;;;;;;;7.63;6.18;;;;;;;29.89;38.65;96927.34;4955874;28;20431;-27
2022/07/21 00:07:43;;;;;;;8.98;5.90;;;;;;;29.90;38.51;96939.59;4978242;28;20037;-27
2022/07/21 00:10:09;;;;;;;10.32;5.45;;;;;;;29.91;38.53;96930.75;4948225;28;20556;-26
2022/07/21 00:12:34;;;;;;;10.73;5.78;;;;;;;29.91;38.51;96930.75;4954471;28;20317;-27
2022/07/21 00:15:00;;;;;;;6.00;5.40;;;;;;;29.92;38.39;96932.41;4953223;28;20029;-28
2022/07/21 00:17:25;;;;;;;8.07;5.65;;;;;;;29.93;38.35;96934.09;4951937;28;20038;-30
2022/07/21 00:19:50;;;;;;;8.27;5.57;;;;;;;29.93;38.18;96931.47;4948822;28;20270;-27
2022/07/21 00:22:16;;;;;;;7.50;5.35;;;;;;;29.93;38.49;96944.69;4957891;28;20037;-34
2022/07/21 00:24:41;;;;;;;7.63;5.30;;;;;;;29.94;38.39;96945.53;4955425;28;20037;-28
2022/07/21 00:27:07;;;;;;;7.75;5.60;;;;;;;29.94;38.40;96946.34;4956377;28;20034;-32
2022/07/21 00:29:32;;;;;;;7.78;5.40;;;;;;;29.95;38.32;96948.03;4960634;28;20029;-27
2022/07/21 00:31:59;;;;;;;6.40;5.05;;;;;;;29.95;38.33;96953.31;4953197;28;20139;-25
2022/07/21 00:34:25;;;;;;;8.88;5.03;;;;;;;29.96;38.07;96952.41;4956296;28;20042;-30
2022/07/21 00:36:50;;;;;;;7.15;5.07;;;;;;;29.95;38.12;96958.63;4957635;28;20026;-26
2022/07/21 00:39:16;;;;;;;8.18;5.32;;;;;;;29.98;38.05;96955.78;4954099;28;20028;-26
2022/07/21 00:41:41;;;;;;;5.95;4.78;;;;;;;29.99;38.18;96948.69;4958351;28;20033;-25
2022/07/21 00:44:19;;;;;;;6.80;4.95;;;;;;;29.99;37.91;96932.84;4956852;28;20037;-30
2022/07/21 00:46:44;;;;;;;9.80;4.90;;;;;;;29.99;37.83;96941.59;4961141;28;20696;-33
2022/07/21 00:49:10;;;;;;;6.40;4.85;;;;;;;30.01;37.75;96961.81;4955032;28;20036;-30
2022/07/21 00:51:35;;;;;;;8.50;5.28;;;;;;;30.02;37.74;96974.06;4950722;28;20045;-26
2022/07/21 00:54:00;;;;;;;6.93;5.28;;;;;;;30.01;38.01;96967.09;4955596;28;20421;-30
2022/07/21 00:56:26;;;;;;;9.48;4.97;;;;;;;29.99;38.03;96968.03;4957371;28;20042;-27
2022/07/21 00:58:52;;;;;;;8.25;4.82;;;;;;;30.02;37.79;96968.78;4939016;28;20030;-28
2022/07/21 01:01:17;;;;;;;6.32;4.70;;;;;;;30.03;38.06;96967.81;4957659;28;20045;-32
2022/07/21 01:03:42;;;;;;;8.10;5.10;;;;;;;30.04;37.99;96966.88;4957580;28;20033;-26
2022/07/21 01:06:08;;;;;;;8.18;5.18;;;;;;;30.02;37.76;96953.78;4958428;28;20029;-32
2022/07/21 01:08:33;;;;;;;9.30;4.90;;;;;;;30.02;38.03;96952.94;4957188;28;20033;-32
2022/07/21 01:10:59;;;;;;;7.53;5.18;;;;;;;30.01;37.88;96957.34;4957479;28;20030;-28
2022/07/21 01:13:24;;;;;;;7.32;5.22;;;;;;;30.03;38.01;96954.63;4964559;28;20639;-28
2022/07/21 01:15:50;;;;;;;8.07;5.10;;;;;;;30.02;38.06;96959.06;4956410;28;20038;-32
2022/07/21 01:18:15;;;;;;;10.55;5.57;;;;;;;29.99;37.88;96957.44;4956283;28;21018;-28
2022/07/21 01:20:40;;;;;;;8.10;5.10;;;;;;;29.95;38.06;96958.63;4931412;28;20038;-32
2022/07/21 01:23:06;;;;;;;10.07;4.90;;;;;;;30.01;37.74;96973.22;4958369;28;20026;-31
2022/07/21 01:25:31;;;;;;;6.55;5.13;;;;;;;30.02;37.96;96963.50;4924979;28;20025;-27
2022/07/21 01:27:57;;;;;;;6.38;4.72;;;;;;;30.03;38.03;96965.19;4954842;28;20029;-31
2022/07/21 01:30:22;;;;;;;6.10;4.43;;;;;;;30.03;38.01;96970.47;4953849;28;20049;-28
2022/07/21 01:32:48;;;;;;;5.97;4.50;;;;;;;30.04;37.90;96966.88;4958356;28;20769;-33
2022/07/21 01:35:14;;;;;;;6.35;4.60;;;;;;;30.03;37.89;96960.75;4955699;28;21379;-30
2022/07/21 01:37:45;;;;;;;6.88;4.75;;;;;;;30.04;37.77;96964.22;4958173;28;20583;-29
2022/07/21 01:42:55;;;;;;;5.72;4.70;;;;;;;30.03;37.50;96987.19;4956135;28;22504;-32
2022/07/21 01:45:22;;;;;;;7.43;4.70;;;;;;;30.04;37.85;97003.84;4955716;28;20156;-31
2022/07/21 01:47:47;;;;;;;5.82;4.20;;;;;;;30.04;37.64;97017.06;4953229;28;20092;-37
2022/07/21 01:50:12;;;;;;;6.55;4.78;;;;;;;30.05;37.50;97013.50;4952305;28;20731;-27
2022/07/21 01:52:38;;;;;;;6.20;4.47;;;;;;;30.04;37.53;97010.00;4957055;28;20034;-28
2022/07/21 01:55:04;;;;;;;9.95;5.13;;;;;;;30.06;37.88;96996.69;4952253;28;20037;-27
2022/07/21 01:57:29;;;;;;;7.97;4.80;;;;;;;30.06;37.84;96999.34;4951661;28;20124;-32
2022/07/21 01:59:54;;;;;;;6.97;4.85;;;;;;;30.05;37.91;96995.00;4953378;28;20100;-29
2022/07/21 02:02:21;;;;;;;9.63;4.78;;;;;;;30.04;37.59;96993.28;4948271;28;20026;-26
2022/07/21 02:04:47;;;;;;;7.13;4.40;;;;;;;30.05;37.88;96992.38;4951937;28;20100;-34
2022/07/21 02:07:13;;;;;;;7.25;4.75;;;;;;;30.04;37.89;96986.22;4950200;28;20245;-28
2022/07/21 02:09:38;;;;;;;7.03;4.38;;;;;;;30.02;37.62;96977.56;4944583;28;20934;-28
2022/07/21 02:12:04;;;;;;;8.35;4.88;;;;;;;30.03;37.88;96981.03;4952885;28;20104;-29
2022/07/21 02:14:30;;;;;;;5.97;4.45;;;;;;;30.02;37.63;96984.63;4952292;28;20113;-28
2022/07/21 02:16:55;;;;;;;6.40;4.53;;;;;;;30.03;37.88;97002.16;4953400;28;20044;-27
2022/07/21 02:19:20;;;;;;;5.68;4.57;;;;;;;30.03;37.88;97002.16;4944283;28;20025;-26
2022/07/21 02:21:46;;;;;;;6.38;4.40;;;;;;;30.02;37.88;96997.84;4956579;28;20282;-28
2022/07/21 02:24:11;;;;;;;7.93;4.40;;;;;;;30.03;37.83;96986.31;4952743;28;20100;-28
2022/07/21 02:26:37;;;;;;;5.82;4.55;;;;;;;30.03;37.94;96986.31;4949233;28;20029;-29
2022/07/21 02:29:02;;;;;;;6.18;4.10;;;;;;;30.04;37.83;96990.66;4952527;28;20447;-32
2022/07/21 02:31:28;;;;;;;8.23;4.28;;;;;;;30.04;37.56;96985.38;4951720;28;20562;-28
2022/07/21 02:33:53;;;;;;;6.53;4.20;;;;;;;30.04;37.60;96982.72;4952437;28;20044;-32
2022/07/21 02:36:19;;;;;;;7.50;4.65;;;;;;;30.04;37.83;96995.94;4954915;28;20026;-27
2022/07/21 02:38:44;;;;;;;9.45;4.60;;;;;;;30.04;37.71;96988.00;4948142;28;20617;-25
2022/07/21 02:41:09;;;;;;;8.40;4.15;;;;;;;30.04;37.79;96977.44;4950654;28;20022;-29
2022/07/21 02:43:35;;;;;;;6.68;4.40;;;;;;;30.04;37.62;96975.66;4955833;28;20037;-30
2022/07/21 02:46:00;;;;;;;8.43;4.38;;;;;;;30.03;37.65;96978.41;4954238;28;20119;-26
2022/07/21 02:48:26;;;;;;;6.80;4.13;;;;;;;30.04;37.66;96978.28;4952328;28;20026;-35
2022/07/21 02:50:51;;;;;;;5.85;4.50;;;;;;;30.05;37.79;96989.72;4961005;28;20693;-29
2022/07/21 02:53:19;;;;;;;13.43;4.43;;;;;;;30.04;37.72;96986.22;4960584;28;20728;-32
2022/07/21 02:55:44;;;;;;;7.03;4.20;;;;;;;30.05;37.90;96987.06;4961548;28;20030;-34
2022/07/21 02:58:11;;;;;;;4.65;4.00;;;;;;;30.05;37.83;96987.91;4959553;28;20058;-25
2022/07/21 03:00:45;;;;;;;6.00;4.20;;;;;;;30.05;37.78;96984.44;4953930;28;20041;-32
2022/07/21 03:03:10;;;;;;;6.68;4.15;;;;;;;30.05;37.58;96995.00;4960498;28;20061;-29
2022/07/21 03:05:36;;;;;;;7.57;4.05;;;;;;;30.05;37.83;97000.28;4960508;28;20044;-28
2022/07/21 03:08:01;;;;;;;6.97;4.25;;;;;;;30.05;37.57;96987.06;4958225;28;20036;-27
2022/07/21 03:10:27;;;;;;;4.70;4.00;;;;;;;30.04;37.57;96980.06;4963732;28;20824;-29
2022/07/21 03:12:52;;;;;;;4.78;3.90;;;;;;;30.05;37.77;96992.38;4954150;28;20185;-32
2022/07/21 03:15:17;;;;;;;6.32;4.30;;;;;;;30.05;37.73;97001.13;4958262;28;20045;-28
2022/07/21 03:17:43;;;;;;;5.20;3.97;;;;;;;30.06;37.88;97007.25;4959296;28;20022;-27
2022/07/21 03:20:09;;;;;;;6.15;4.10;;;;;;;30.06;37.75;97000.16;4951627;28;20582;-33
2022/07/21 03:22:34;;;;;;;5.85;4.00;;;;;;;30.06;37.84;96996.69;4964611;28;20022;-31
2022/07/21 03:25:00;;;;;;;6.50;3.67;;;;;;;30.06;37.54;96996.69;4957476;28;20040;-28
2022/07/21 03:27:25;;;;;;;5.57;3.70;;;;;;;30.06;37.49;97001.97;4959922;28;20026;-30
2022/07/21 03:29:51;;;;;;;6.03;4.15;;;;;;;30.07;37.47;97008.94;4961154;28;20747;-27
2022/07/21 03:32:16;;;;;;;4.70;3.88;;;;;;;30.08;37.54;97005.34;4959401;28;22243;-35
2022/07/21 03:34:42;;;;;;;5.38;3.67;;;;;;;30.07;37.45;97008.94;4958264;28;20403;-28
2022/07/21 03:37:07;;;;;;;5.82;4.43;;;;;;;30.05;37.41;97011.69;4956838;28;20776;-27
2022/07/21 03:39:32;;;;;;;5.10;4.05;;;;;;;30.07;37.64;97003.66;4960240;28;20742;-32
2022/07/21 03:41:58;;;;;;;5.80;3.80;;;;;;;30.07;37.68;97009.81;4958836;28;20029;-31
2022/07/21 03:44:23;;;;;;;5.28;3.90;;;;;;;30.07;37.40;97009.81;4960156;28;20049;-32
2022/07/21 03:46:49;;;;;;;5.53;3.90;;;;;;;30.07;37.65;97003.66;4960294;28;20151;-29
2022/07/21 03:49:14;;;;;;;9.25;3.53;;;;;;;30.07;37.34;96998.38;4954629;28;22351;-29
2022/07/21 03:51:40;;;;;;;4.57;3.97;;;;;;;30.07;37.67;97006.31;4954697;28;20030;-30
2022/07/21 03:54:05;;;;;;;4.95;4.22;;;;;;;30.07;37.72;97014.22;4957781;28;20026;-29
2022/07/21 03:56:30;;;;;;;5.25;3.90;;;;;;;30.06;37.64;97013.38;4965798;28;21301;-30
2022/07/21 03:58:56;;;;;;;6.22;3.78;;;;;;;30.07;37.37;97011.59;4965048;28;20041;-26
2022/07/21 04:01:21;;;;;;;5.43;3.88;;;;;;;30.08;37.50;97021.19;4958094;28;20030;-30
2022/07/21 04:03:47;;;;;;;6.70;4.07;;;;;;;30.08;37.43;97019.41;4958024;28;20052;-28
2022/07/21 04:06:12;;;;;;;4.65;3.50;;;;;;;30.04;37.39;97014.44;4967459;28;20040;-29
2022/07/21 04:08:38;;;;;;;5.55;3.55;;;;;;;30.08;37.64;97024.69;4962364;28;20045;-31
2022/07/21 04:11:04;;;;;;;4.68;3.78;;;;;;;30.09;37.57;97028.22;4958020;28;20030;-26
2022/07/21 04:13:29;;;;;;;5.07;3.80;;;;;;;30.10;37.60;97029.88;4962853;28;20037;-33
2022/07/21 04:15:54;;;;;;;5.10;4.00;;;;;;;30.08;37.26;97027.34;4960948;28;20031;-30
2022/07/21 04:18:20;;;;;;;6.72;3.85;;;;;;;30.09;37.64;97036.13;4955361;28;20692;-28
2022/07/21 04:20:45;;;;;;;6.28;3.80;;;;;;;30.10;37.32;97040.47;4955487;28;20174;-35
2022/07/21 04:23:10;;;;;;;6.00;3.80;;;;;;;30.09;37.25;97044.06;4961153;28;20057;-32
2022/07/21 04:25:38;;;;;;;9.13;3.92;;;;;;;30.09;37.42;97044.06;4955192;28;20820;-33
2022/07/21 04:28:03;;;;;;;5.40;4.15;;;;;;;30.09;37.59;97029.03;4965843;28;20064;-31
2022/07/21 04:30:29;;;;;;;5.55;3.85;;;;;;;30.10;37.27;97040.47;4966604;28;21177;-30
2022/07/21 04:32:54;;;;;;;5.65;4.07;;;;;;;30.09;37.37;97044.06;4957867;28;20046;-26
2022/07/21 04:35:20;;;;;;;5.30;3.85;;;;;;;30.09;37.20;97046.69;4953236;28;20025;-27
2022/07/21 04:37:45;;;;;;;8.90;3.90;;;;;;;30.10;37.50;97048.38;4957018;28;20905;-31
2022/07/21 04:40:11;;;;;;;5.72;3.80;;;;;;;30.09;37.29;97044.06;4961401;28;20130;-26
2022/07/21 04:42:37;;;;;;;6.88;3.70;;;;;;;30.09;37.33;97044.06;4960319;28;20133;-30
2022/07/21 04:45:03;;;;;;;4.70;3.58;;;;;;;30.09;37.49;97039.59;4953508;28;20052;-27
2022/07/21 04:47:28;;;;;;;6.28;3.80;;;;;;;30.10;37.52;97051.03;4963491;28;20247;-33
2022/07/21 04:49:54;;;;;;;10.35;3.88;;;;;;;30.08;37.31;97051.13;4955026;28;20420;-30
2022/07/21 04:52:20;;;;;;;4.53;3.63;;;;;;;30.09;37.37;97058.09;4961355;28;20907;-31
2022/07/21 04:54:45;;;;;;;5.53;3.80;;;;;;;30.10;37.45;97056.31;4955545;28;20029;-30
2022/07/21 04:57:11;;;;;;;5.82;3.78;;;;;;;30.08;37.34;97039.69;4960047;28;20044;-30
2022/07/21 04:59:36;;;;;;;10.05;4.05;;;;;;;30.09;37.58;97044.88;4965198;28;20057;-29
2022/07/21 05:02:02;;;;;;;10.20;4.07;;;;;;;30.09;37.47;97044.06;4954410;28;23630;-27
2022/07/21 05:04:27;;;;;;;5.82;3.63;;;;;;;30.09;37.29;97050.19;4956229;28;20041;-26
2022/07/21 05:06:52;;;;;;;5.20;3.53;;;;;;;30.10;37.53;97051.03;4955678;28;20037;-32
2022/07/21 05:09:18;;;;;;;5.25;3.70;;;;;;;30.09;37.29;97050.19;4964928;28;20124;-34
2022/07/21 05:11:43;;;;;;;5.22;3.60;;;;;;;30.05;37.76;97053.97;4959743;28;20083;-29
2022/07/21 05:14:09;;;;;;;6.80;3.50;;;;;;;30.09;37.57;97055.47;4962489;28;20030;-29
2022/07/21 05:16:34;;;;;;;6.15;3.80;;;;;;;30.09;37.55;97055.47;4956917;28;20066;-29
2022/07/21 05:19:00;;;;;;;5.57;4.05;;;;;;;30.11;37.26;97058.00;4954094;28;20309;-32
2022/07/21 05:21:26;;;;;;;12.80;4.25;;;;;;;30.11;37.56;97065.94;4966551;28;20140;-29
2022/07/21 05:23:51;;;;;;;8.27;3.92;;;;;;;30.12;37.44;97065.00;4961268;28;20033;-34
2022/07/21 05:26:16;;;;;;;13.55;4.10;;;;;;;30.11;37.98;97063.28;4964513;28;20185;-30
2022/07/21 05:28:42;;;;;;;10.00;4.43;;;;;;;30.11;37.92;97064.16;4967948;28;20034;-30
2022/07/21 05:31:07;;;;;;;7.78;4.03;;;;;;;30.12;37.83;97070.28;4957361;28;20038;-32
2022/07/21 05:33:33;;;;;;;6.32;3.58;;;;;;;30.11;37.82;97063.28;4957612;28;20124;-30
2022/07/21 05:35:58;;;;;;;8.15;3.85;;;;;;;30.12;37.51;97067.66;4958600;28;20038;-29
2022/07/21 05:38:24;;;;;;;7.75;3.80;;;;;;;30.12;37.75;97065.00;4957096;28;20113;-27
2022/07/21 05:40:49;;;;;;;10.13;4.32;;;;;;;30.13;37.55;97061.41;4962676;28;20037;-28
2022/07/21 05:43:15;;;;;;;12.93;4.25;;;;;;;30.12;37.55;97067.66;4955596;28;20096;-28
2022/07/21 05:45:40;;;;;;;5.15;3.78;;;;;;;30.12;37.53;97075.56;4965072;28;20148;-34
2022/07/21 05:48:06;;;;;;;4.97;3.83;;;;;;;30.14;37.39;97078.97;4956921;28;20943;-30
2022/07/21 05:50:31;;;;;;;17.10;3.90;;;;;;;30.13;37.74;97082.56;4954754;28;20045;-29
2022/07/21 05:52:56;;;;;;;4.88;3.90;;;;;;;30.14;37.80;97078.97;4957701;28;20586;-28
2022/07/21 05:55:22;;;;;;;8.38;4.20;;;;;;;30.16;37.93;97082.34;4962638;28;20571;-26
2022/07/21 05:57:47;;;;;;;10.07;4.68;;;;;;;30.16;38.04;97087.63;4961553;28;20038;-30
2022/07/21 06:00:14;;;;;;;10.00;4.70;;;;;;;30.17;37.60;97089.31;4963333;28;20089;-27
2022/07/21 06:02:39;;;;;;;9.95;4.70;;;;;;;30.17;37.72;97099.91;4952506;28;20105;-33
2022/07/21 06:05:07;;;;;;;10.93;4.07;;;;;;;30.19;37.91;97100.66;4958653;28;20488;-33
2022/07/21 06:07:32;;;;;;;7.45;4.50;;;;;;;30.19;37.92;97102.44;4961410;28;20041;-31
2022/07/21 06:09:59;;;;;;;8.95;4.68;;;;;;;30.19;37.78;97108.59;4958158;28;20061;-31
2022/07/21 06:12:24;;;;;;;7.85;4.32;;;;;;;30.22;37.83;97107.53;4955731;28;20550;-33
2022/07/21 06:14:50;;;;;;;9.57;3.97;;;;;;;30.21;37.49;97109.31;4960838;28;20029;-25
2022/07/21 06:17:15;;;;;;;8.13;4.18;;;;;;;30.20;37.76;97107.63;4953343;28;21299;-30
2022/07/21 06:19:41;;;;;;;6.85;4.15;;;;;;;30.21;37.35;97109.31;4962734;28;21560;-26
2022/07/21 06:22:06;;;;;;;8.20;4.40;;;;;;;30.23;37.59;97106.59;4960981;28;20017;-29
2022/07/21 06:24:31;;;;;;;6.50;3.90;;;;;;;30.22;37.41;97108.41;4963259;28;20052;-31
2022/07/21 06:26:57;;;;;;;8.65;4.38;;;;;;;30.22;37.27;97103.09;4957722;28;20910;-30
2022/07/21 06:29:23;;;;;;;7.35;4.10;;;;;;;30.22;37.58;97110.19;4957663;28;20424;-29
2022/07/21 06:31:48;;;;;;;50.83;17.50;;;;;;;30.22;37.55;97108.41;4956656;28;20045;-32
2022/07/21 06:34:13;;;;;;;16.27;7.45;;;;;;;30.23;37.45;97107.44;4952767;28;20436;-31
2022/07/21 06:36:39;;;;;;;8.25;5.72;;;;;;;30.19;37.67;97113.88;4957426;28;20045;-28
2022/07/21 06:39:04;;;;;;;10.60;6.55;;;;;;;30.16;37.46;97105.31;4965442;28;20135;-26
2022/07/21 06:41:30;;;;;;;10.95;6.20;;;;;;;30.10;37.45;97112.66;4964232;28;20342;-31
2022/07/21 06:43:55;;;;;;;14.55;6.15;;;;;;;30.05;36.89;97113.91;4955214;28;20026;-29
2022/07/21 06:46:20;;;;;;;7.28;5.88;;;;;;;29.98;37.30;97106.38;4968523;28;20030;-32
2022/07/21 06:48:46;;;;;;;8.20;5.88;;;;;;;29.94;37.32;97107.53;4954368;28;20247;-30
2022/07/21 06:51:11;;;;;;;9.02;5.60;;;;;;;29.90;37.32;97113.97;4951251;28;20107;-29
2022/07/21 06:53:37;;;;;;;9.43;6.22;;;;;;;29.88;37.27;97113.22;4954932;28;20474;-33
2022/07/21 06:56:02;;;;;;;8.65;5.93;;;;;;;29.87;37.30;97106.25;4958082;28;20090;-28
2022/07/21 06:58:28;;;;;;;9.40;5.97;;;;;;;29.81;37.46;97104.84;4953805;28;20030;-28
2022/07/21 07:00:53;;;;;;;7.65;5.97;;;;;;;29.85;37.09;97113.41;4950749;28;20033;-29
2022/07/21 07:03:19;;;;;;;7.85;6.03;;;;;;;29.83;37.09;97120.59;4961718;28;20038;-29
2022/07/21 07:05:45;;;;;;;8.85;6.05;;;;;;;29.80;37.45;97119.00;4952613;28;20025;-30
2022/07/21 07:08:10;;;;;;;13.18;5.93;;;;;;;29.81;37.73;97119.84;4955358;28;20492;-29
2022/07/21 07:10:36;;;;;;;10.45;5.80;;;;;;;29.81;37.70;97125.13;4961109;28;20567;-28
2022/07/21 07:13:01;;;;;;;11.77;6.15;;;;;;;29.81;37.63;97131.25;4964896;28;20042;-30
2022/07/21 07:15:27;;;;;;;8.43;6.15;;;;;;;29.80;37.60;97120.78;4959008;28;20030;-24
2022/07/21 07:17:53;;;;;;;11.45;6.07;;;;;;;29.78;37.59;97120.06;4970409;28;20040;-28
2022/07/21 07:20:18;;;;;;;11.32;6.13;;;;;;;29.77;37.66;97123.63;4954772;28;20030;-31
2022/07/21 07:22:43;;;;;;;11.45;5.57;;;;;;;29.74;37.55;97119.38;4955344;28;20014;-30
2022/07/21 07:25:09;;;;;;;8.52;5.35;;;;;;;29.73;37.53;97126.50;4952221;28;20467;-30
2022/07/21 07:27:34;;;;;;;8.15;5.40;;;;;;;29.70;37.37;97124.03;4957035;28;20105;-27
2022/07/21 07:30:00;;;;;;;8.45;5.32;;;;;;;29.69;37.16;97130.28;4952739;28;20123;-26
2022/07/21 07:32:26;;;;;;;12.75;5.53;;;;;;;29.66;37.42;97127.81;4954876;28;20506;-32
2022/07/21 07:34:51;;;;;;;9.35;5.50;;;;;;;29.65;37.07;97125.28;4954865;28;20174;-30
2022/07/21 07:37:16;;;;;;;11.52;5.78;;;;;;;29.63;37.46;97132.47;4946846;28;20036;-30
2022/07/21 07:39:42;;;;;;;9.68;5.55;;;;;;;29.62;37.20;97136.88;4953453;28;20652;-32
2022/07/21 07:42:07;;;;;;;10.10;5.75;;;;;;;29.60;37.11;97128.22;4957991;28;20073;-30
2022/07/21 07:44:33;;;;;;;7.97;5.38;;;;;;;29.59;37.01;97130.00;4959134;28;20021;-30
2022/07/21 07:47:01;;;;;;;7.85;5.55;;;;;;;29.57;37.11;97128.41;4950053;28;20121;-29
2022/07/21 07:49:27;;;;;;;10.45;5.32;;;;;;;29.54;36.84;97123.31;4948876;28;22568;-36
2022/07/21 07:51:52;;;;;;;6.47;5.20;;;;;;;29.52;36.95;97128.69;4951683;28;20875;-27
2022/07/21 07:54:17;;;;;;;6.90;5.03;;;;;;;29.53;36.64;97121.63;4955611;28;20037;-31
2022/07/21 07:56:43;;;;;;;7.43;5.10;;;;;;;29.51;36.56;97134.03;4951703;28;22785;-31
2022/07/21 07:59:09;;;;;;;7.57;5.07;;;;;;;29.51;36.64;97128.75;4952129;28;20845;-30
2022/07/21 08:01:34;;;;;;;6.50;4.53;;;;;;;29.52;36.66;97133.13;4954757;28;20041;-33
2022/07/21 08:03:59;;;;;;;8.75;4.88;;;;;;;29.52;36.60;97138.41;4957437;28;20127;-24
2022/07/21 08:06:25;;;;;;;7.15;4.88;;;;;;;29.50;36.15;97137.63;4952246;28;20119;-25
2022/07/21 08:08:51;;;;;;;7.35;4.88;;;;;;;29.48;36.01;97135.94;4956219;28;20049;-29
2022/07/21 08:11:16;;;;;;;6.68;4.47;;;;;;;29.47;35.93;97139.53;4948201;28;20053;-28
2022/07/21 08:13:42;;;;;;;8.02;5.00;;;;;;;29.44;36.09;97139.72;4954838;28;20078;-28
2022/07/21 08:16:07;;;;;;;7.93;4.68;;;;;;;29.45;36.08;97133.47;4951120;28;20124;-30
2022/07/21 08:18:33;;;;;;;9.20;4.70;;;;;;;29.43;36.08;97138.00;4956293;28;20160;-28
2022/07/21 08:20:58;;;;;;;9.68;5.07;;;;;;;29.45;36.08;97137.94;4949273;28;20073;-33
2022/07/21 08:23:24;;;;;;;9.95;5.47;;;;;;;29.45;36.18;97130.84;4952017;28;20034;-29
2022/07/21 08:25:49;;;;;;;9.15;4.97;;;;;;;29.47;36.45;97134.25;4952829;28;20064;-28
2022/07/21 08:28:15;;;;;;;8.93;4.70;;;;;;;29.49;35.89;97126.22;4949062;28;21278;-32
2022/07/21 08:30:40;;;;;;;8.90;4.97;;;;;;;29.53;36.04;97132.19;4951036;28;20627;-26
2022/07/21 08:33:06;;;;;;;8.80;5.32;;;;;;;29.52;35.81;97123.41;4959111;28;20096;-30
2022/07/21 08:35:32;;;;;;;9.90;5.13;;;;;;;29.58;36.10;97119.53;4944380;28;20065;-27
2022/07/21 08:38:06;;;;;;;26.13;5.95;;;;;;;29.62;35.92;97126.31;4951301;28;20064;-32
2022/07/21 08:40:36;;;;;;;14.18;6.40;;;;;;;29.65;35.99;97126.13;4952796;28;20030;-30
2022/07/21 08:43:02;;;;;;;12.75;6.18;;;;;;;29.68;35.89;97125.09;4955278;28;20156;-28
2022/07/21 08:45:27;;;;;;;14.10;5.80;;;;;;;29.71;36.06;97119.63;4957427;28;20029;-26
2022/07/21 08:47:56;;;;;;;10.93;5.40;;;;;;;29.73;35.91;97117.69;4967857;28;20026;-28
2022/07/21 08:50:22;;;;;;;10.52;5.35;;;;;;;29.76;35.52;97121.94;4964485;28;20061;-28
2022/07/21 08:52:48;;;;;;;18.00;5.57;;;;;;;29.76;35.57;97121.94;4964871;28;20281;-33
2022/07/21 08:55:13;;;;;;;20.05;5.85;;;;;;;29.77;35.71;97116.56;4962334;28;20103;-29
2022/07/21 08:57:39;;;;;;;12.70;5.30;;;;;;;29.81;35.56;97114.56;4955153;28;20823;-28
2022/07/21 09:00:06;;;;;;;16.33;5.85;;;;;;;29.82;35.35;97119.75;4962493;28;20290;-28
2022/07/21 09:02:33;;;;;;;17.90;6.00;;;;;;;29.84;35.67;97117.00;4956244;28;20049;-28
2022/07/21 09:04:59;;;;;;;14.38;5.18;;;;;;;29.85;35.40;97122.19;4964003;28;20598;-31
2022/07/21 09:07:24;;;;;;;12.55;5.30;;;;;;;29.86;35.45;97120.38;4954782;28;20026;-35
2022/07/21 09:09:57;;;;;;;9.85;5.35;;;;;;;29.87;35.36;97114.19;4957796;28;20064;-28
2022/07/21 09:12:22;;;;;;;17.08;5.28;;;;;;;29.89;35.24;97122.84;4949443;28;20096;-29
2022/07/21 09:14:49;;;;;;;15.88;5.55;;;;;;;29.89;35.45;97122.84;4957763;28;20146;-29
2022/07/21 09:17:15;;;;;;;10.30;5.22;;;;;;;29.91;35.58;97115.69;4953680;28;20053;-31
2022/07/21 09:19:45;;;;;;;11.68;5.80;;;;;;;29.91;35.53;97114.81;4962305;28;20034;-28
2022/07/21 09:22:19;;;;;;;10.50;5.80;;;;;;;29.93;35.38;97111.13;4965191;28;20025;-33
2022/07/21 09:24:49;;;;;;;12.75;4.78;;;;;;;29.93;35.59;97111.13;4962758;28;20327;-28
2022/07/21 09:27:15;;;;;;;10.40;5.05;;;;;;;29.95;35.58;97117.13;4961548;28;20030;-31
2022/07/21 09:29:58;;;;;;;13.80;5.35;;;;;;;29.96;35.25;97113.56;4966486;28;20034;-26
2022/07/21 09:32:28;;;;;;;8.77;5.13;;;;;;;29.97;35.54;97120.53;4964321;28;20029;-29
2022/07/21 09:35:14;;;;;;;12.40;5.28;;;;;;;29.98;35.29;97116.94;4966129;28;20037;-29
2022/07/21 09:37:39;;;;;;;8.43;4.70;;;;;;;29.98;35.65;97111.66;4963853;28;21468;-25
2022/07/21 09:40:09;;;;;;;8.05;4.40;;;;;;;30.00;35.62;97116.84;4960358;28;20045;-29
2022/07/21 09:42:37;;;;;;;9.63;5.05;;;;;;;30.01;35.42;97112.44;4961371;28;20455;-28
2022/07/21 09:45:07;;;;;;;8.20;4.68;;;;;;;30.03;35.49;97115.81;4958630;28;20041;-31
2022/07/21 09:47:33;;;;;;;9.02;4.72;;;;;;;30.03;35.32;97110.50;4959427;28;20111;-35
2022/07/21 09:49:58;;;;;;;8.40;4.22;;;;;;;30.04;35.58;97109.56;4954394;28;20039;-30
2022/07/21 09:52:29;;;;;;;8.88;4.40;;;;;;;30.05;35.31;97111.28;4957296;28;20034;-32
2022/07/21 09:54:55;;;;;;;6.35;4.53;;;;;;;30.05;35.32;97111.28;4956152;28;20080;-29
2022/07/21 09:57:21;;;;;;;9.75;5.20;;;;;;;30.05;35.25;97112.09;4957726;28;20034;-27
2022/07/21 09:59:47;;;;;;;7.40;4.90;;;;;;;30.07;35.58;97109.38;4956650;28;20033;-31
2022/07/21 10:02:26;;;;;;;7.35;4.28;;;;;;;30.07;35.44;97110.22;4956722;28;20049;-27
2022/07/21 10:05:04;;;;;;;7.40;4.05;;;;;;;30.08;35.51;97111.06;4954015;28;20048;-30
2022/07/21 10:07:29;;;;;;;8.02;4.35;;;;;;;30.08;35.56;97103.13;4957043;28;20030;-29
2022/07/21 10:09:55;;;;;;;8.50;4.75;;;;;;;30.09;35.29;97099.56;4957913;28;20095;-30
2022/07/21 10:12:20;;;;;;;8.68;4.25;;;;;;;30.09;35.19;97097.75;4962184;28;20238;-30
2022/07/21 10:14:49;;;;;;;7.45;4.38;;;;;;;30.10;35.14;97093.31;4952453;28;22012;-32
2022/07/21 10:17:17;;;;;;;9.20;4.72;;;;;;;30.12;35.57;97094.06;4961660;28;20030;-31
2022/07/21 10:19:54;;;;;;;6.22;4.03;;;;;;;30.13;35.37;97085.19;4959219;28;20148;-27
2022/07/21 10:22:57;;;;;;;6.35;4.05;;;;;;;30.13;35.55;97082.56;4956010;28;20112;-30
2022/07/21 10:25:23;;;;;;;10.82;4.40;;;;;;;30.13;35.31;97085.19;4958327;28;20042;-30
2022/07/21 10:28:10;;;;;;;6.75;4.32;;;;;;;30.14;35.37;97078.97;4953363;28;20500;-33
2022/07/21 10:30:52;;;;;;;6.68;4.30;;;;;;;30.15;35.13;97079.81;4954361;28;20109;-29
2022/07/21 10:33:18;;;;;;;;;;;;;;;30.16;35.22;97087.63;4958270;28;20026;-25
2022/07/21 10:35:45;;;;;;;6.88;4.25;;;;;;;30.16;35.33;97082.34;4955998;28;19918;-27
2022/07/21 10:38:32;;;;;;;6.78;4.00;;;;;;;30.16;35.28;97082.34;4955380;28;20088;-25
2022/07/21 10:40:59;;;;;;;7.47;3.80;;;;;;;30.16;35.17;97082.34;4949643;28;20891;-33
2022/07/21 10:43:24;;;;;;;7.95;3.83;;;;;;;30.17;35.55;97076.13;4955522;28;20064;-25
2022/07/21 10:45:49;;;;;;;7.95;3.70;;;;;;;30.17;35.45;97078.75;4956773;28;20834;-30
2022/07/21 10:48:36;;;;;;;6.45;3.80;;;;;;;30.07;35.18;97072.38;4960682;28;20041;-29
2022/07/21 10:51:08;;;;;;;5.97;3.80;;;;;;;30.18;35.39;97080.47;4957120;28;20057;-32
2022/07/21 10:53:34;;;;;;;6.97;4.05;;;;;;;30.19;35.21;97079.50;4955815;28;20038;-28
2022/07/21 10:55:59;;;;;;;6.40;3.80;;;;;;;30.19;35.39;97076.00;4959764;28;20121;-26
2022/07/21 10:58:37;;;;;;;6.18;3.72;;;;;;;30.19;35.29;97079.50;4956650;28;20053;-25
2022/07/21 11:01:03;;;;;;;7.50;3.75;;;;;;;30.20;35.22;97078.56;4951676;28;20061;-29
2022/07/21 11:03:38;;;;;;;7.53;3.97;;;;;;;30.21;35.31;97069.66;4951961;28;20036;-27
2022/07/21 11:06:09;;;;;;;5.60;3.53;;;;;;;30.22;35.54;97074.03;4956894;28;20034;-26
2022/07/21 11:08:38;;;;;;;6.15;3.70;;;;;;;30.23;35.51;97066.94;4956727;28;20037;-35
2022/07/21 11:11:10;;;;;;;5.68;3.70;;;;;;;30.18;35.39;97059.34;4952781;28;20028;-32
2022/07/21 11:14:15;;;;;;;7.25;3.75;;;;;;;30.24;35.19;97064.19;4957577;28;20773;-28
2022/07/21 11:16:40;;;;;;;5.43;3.60;;;;;;;30.25;35.39;97060.59;4956404;28;20060;-30
2022/07/21 11:19:06;;;;;;;5.72;3.38;;;;;;;30.26;35.44;97058.81;4958588;28;20035;-28
2022/07/21 11:21:31;;;;;;;5.93;3.95;;;;;;;30.25;35.15;97050.00;4960897;28;21193;-27
2022/07/21 11:23:57;;;;;;;5.55;3.42;;;;;;;30.27;35.17;97051.69;4963738;28;20041;-28
2022/07/21 11:26:25;;;;;;;4.85;3.35;;;;;;;30.26;35.36;97045.59;4957119;28;20030;-30
2022/07/21 11:29:06;;;;;;;5.07;3.58;;;;;;;30.28;35.33;97048.13;4958414;28;20040;-34
2022/07/21 11:31:31;;;;;;;4.45;3.30;;;;;;;30.27;35.40;97052.56;4956289;28;20026;-26